sensor_id;sensor_type;location;lat;lon;timestamp;P1;durP1;ratioP1;P2;durP2;ratioP2
68140;SDS011;54941;52.220;104.306;2023-05-27T00:02:21;15.80;;;6.35;;
68140;SDS011;54941;52.220;104.306;2023-05-27T00:04:47;24.50;;;8.63;;
68140;SDS011;54941;52.220;104.306;2023-05-27T00:07:14;24.55;;;7.35;;
68140;SDS011;54941;52.220;104.306;2023-05-27T00:09:42;16.05;;;5.82;;
68140;SDS011;54941;52.220;104.306;2023-05-27T00:12:08;22.35;;;6.50;;
68140;SDS011;54941;52.220;104.306;2023-05-27T00:14:34;22.70;;;7.78;;
68140;SDS011;54941;52.220;104.306;2023-05-27T00:17:01;19.85;;;7.00;;
68140;SDS011;54941;52.220;104.306;2023-05-27T00:19:27;15.80;;;6.35;;
68140;SDS011;54941;52.220;104.306;2023-05-27T00:21:53;22.63;;;6.13;;
68140;SDS011;54941;52.220;104.306;2023-05-27T00:24:20;17.20;;;6.75;;
68140;SDS011;54941;52.220;104.306;2023-05-27T00:26:48;17.80;;;5.63;;
68140;SDS011;54941;52.220;104.306;2023-05-27T00:29:15;18.20;;;6.45;;
68140;SDS011;54941;52.220;104.306;2023-05-27T00:31:42;16.92;;;6.32;;
68140;SDS011;54941;52.220;104.306;2023-05-27T00:34:09;16.33;;;6.88;;
68140;SDS011;54941;52.220;104.306;2023-05-27T00:36:35;15.75;;;6.32;;
68140;SDS011;54941;52.220;104.306;2023-05-27T00:39:01;20.75;;;6.45;;
68140;SDS011;54941;52.220;104.306;2023-05-27T00:41:27;24.75;;;7.25;;
68140;SDS011;54941;52.220;104.306;2023-05-27T00:43:56;23.10;;;7.03;;
68140;SDS011;54941;52.220;104.306;2023-05-27T00:46:22;17.10;;;6.00;;
68140;SDS011;54941;52.220;104.306;2023-05-27T00:48:49;16.58;;;6.55;;
68140;SDS011;54941;52.220;104.306;2023-05-27T00:51:16;17.58;;;6.15;;
68140;SDS011;54941;52.220;104.306;2023-05-27T00:53:43;20.67;;;6.00;;
68140;SDS011;54941;52.220;104.306;2023-05-27T00:56:10;26.50;;;6.75;;
68140;SDS011;54941;52.220;104.306;2023-05-27T00:58:37;23.00;;;7.35;;
68140;SDS011;54941;52.220;104.306;2023-05-27T01:01:05;21.92;;;7.35;;
68140;SDS011;54941;52.220;104.306;2023-05-27T01:03:31;24.08;;;6.65;;
68140;SDS011;54941;52.220;104.306;2023-05-27T01:06:03;24.42;;;7.82;;
68140;SDS011;54941;52.220;104.306;2023-05-27T01:08:51;17.33;;;7.93;;
68140;SDS011;54941;52.220;104.306;2023-05-27T01:11:28;17.83;;;6.95;;
68140;SDS011;54941;52.220;104.306;2023-05-27T01:14:00;20.20;;;7.28;;
68140;SDS011;54941;52.220;104.306;2023-05-27T01:16:35;14.95;;;6.97;;
68140;SDS011;54941;52.220;104.306;2023-05-27T01:19:04;11.75;;;5.95;;
68140;SDS011;54941;52.220;104.306;2023-05-27T01:21:37;13.05;;;7.35;;
68140;SDS011;54941;52.220;104.306;2023-05-27T01:24:08;16.88;;;8.27;;
68140;SDS011;54941;52.220;104.306;2023-05-27T01:26:34;12.85;;;6.93;;
68140;SDS011;54941;52.220;104.306;2023-05-27T01:29:00;12.90;;;6.15;;
68140;SDS011;54941;52.220;104.306;2023-05-27T01:31:28;14.30;;;7.25;;
68140;SDS011;54941;52.220;104.306;2023-05-27T01:34:01;9.48;;;5.97;;
68140;SDS011;54941;52.220;104.306;2023-05-27T01:36:31;14.68;;;6.72;;
68140;SDS011;54941;52.220;104.306;2023-05-27T01:39:01;12.05;;;6.82;;
68140;SDS011;54941;52.220;104.306;2023-05-27T01:41:31;12.32;;;7.25;;
68140;SDS011;54941;52.220;104.306;2023-05-27T01:44:00;12.27;;;6.30;;
68140;SDS011;54941;52.220;104.306;2023-05-27T01:46:27;12.90;;;6.75;;
68140;SDS011;54941;52.220;104.306;2023-05-27T01:48:53;15.77;;;7.45;;
68140;SDS011;54941;52.220;104.306;2023-05-27T01:51:22;14.00;;;7.07;;
68140;SDS011;54941;52.220;104.306;2023-05-27T01:53:52;13.98;;;7.05;;
68140;SDS011;54941;52.220;104.306;2023-05-27T01:56:18;14.68;;;6.20;;
68140;SDS011;54941;52.220;104.306;2023-05-27T01:58:46;14.85;;;7.63;;
68140;SDS011;54941;52.220;104.306;2023-05-27T02:01:12;14.68;;;6.32;;
68140;SDS011;54941;52.220;104.306;2023-05-27T02:03:39;15.15;;;7.35;;
68140;SDS011;54941;52.220;104.306;2023-05-27T02:06:05;31.65;;;14.02;;
68140;SDS011;54941;52.220;104.306;2023-05-27T02:08:31;24.10;;;9.85;;
68140;SDS011;54941;52.220;104.306;2023-05-27T02:10:58;17.92;;;8.00;;
68140;SDS011;54941;52.220;104.306;2023-05-27T02:13:24;16.52;;;8.63;;
68140;SDS011;54941;52.220;104.306;2023-05-27T02:15:52;19.23;;;8.65;;
68140;SDS011;54941;52.220;104.306;2023-05-27T02:18:18;18.77;;;9.80;;
68140;SDS011;54941;52.220;104.306;2023-05-27T02:20:45;20.90;;;8.98;;
68140;SDS011;54941;52.220;104.306;2023-05-27T02:23:12;20.75;;;10.50;;
68140;SDS011;54941;52.220;104.306;2023-05-27T02:25:41;22.58;;;11.23;;
68140;SDS011;54941;52.220;104.306;2023-05-27T02:28:07;22.30;;;11.70;;
68140;SDS011;54941;52.220;104.306;2023-05-27T02:30:33;21.20;;;9.60;;
68140;SDS011;54941;52.220;104.306;2023-05-27T02:33:01;20.08;;;10.90;;
68140;SDS011;54941;52.220;104.306;2023-05-27T02:35:28;21.83;;;10.68;;
68140;SDS011;54941;52.220;104.306;2023-05-27T02:38:05;28.52;;;11.60;;
68140;SDS011;54941;52.220;104.306;2023-05-27T02:40:31;25.42;;;12.82;;
68140;SDS011;54941;52.220;104.306;2023-05-27T02:42:58;23.40;;;11.63;;
68140;SDS011;54941;52.220;104.306;2023-05-27T02:45:24;21.30;;;11.00;;
68140;SDS011;54941;52.220;104.306;2023-05-27T02:47:51;26.92;;;11.77;;
68140;SDS011;54941;52.220;104.306;2023-05-27T02:50:19;25.85;;;12.32;;
68140;SDS011;54941;52.220;104.306;2023-05-27T02:52:46;22.42;;;10.88;;
68140;SDS011;54941;52.220;104.306;2023-05-27T02:55:12;24.00;;;10.82;;
68140;SDS011;54941;52.220;104.306;2023-05-27T02:57:38;21.50;;;11.18;;
68140;SDS011;54941;52.220;104.306;2023-05-27T03:00:05;24.20;;;12.85;;
68140;SDS011;54941;52.220;104.306;2023-05-27T03:02:33;24.77;;;11.82;;
68140;SDS011;54941;52.220;104.306;2023-05-27T03:05:02;24.08;;;12.25;;
68140;SDS011;54941;52.220;104.306;2023-05-27T03:07:32;25.73;;;10.63;;
68140;SDS011;54941;52.220;104.306;2023-05-27T03:09:59;22.27;;;10.63;;
68140;SDS011;54941;52.220;104.306;2023-05-27T03:12:25;26.80;;;10.73;;
68140;SDS011;54941;52.220;104.306;2023-05-27T03:14:52;22.23;;;11.05;;
68140;SDS011;54941;52.220;104.306;2023-05-27T03:17:19;25.08;;;12.15;;
68140;SDS011;54941;52.220;104.306;2023-05-27T03:19:46;22.63;;;10.70;;
68140;SDS011;54941;52.220;104.306;2023-05-27T03:22:15;25.77;;;11.85;;
68140;SDS011;54941;52.220;104.306;2023-05-27T03:24:43;24.70;;;10.63;;
68140;SDS011;54941;52.220;104.306;2023-05-27T03:27:10;26.52;;;10.82;;
68140;SDS011;54941;52.220;104.306;2023-05-27T03:29:36;21.83;;;11.20;;
68140;SDS011;54941;52.220;104.306;2023-05-27T03:32:02;24.60;;;14.07;;
68140;SDS011;54941;52.220;104.306;2023-05-27T03:34:29;30.05;;;13.15;;
68140;SDS011;54941;52.220;104.306;2023-05-27T03:36:55;31.77;;;14.98;;
68140;SDS011;54941;52.220;104.306;2023-05-27T03:39:21;28.83;;;14.55;;
68140;SDS011;54941;52.220;104.306;2023-05-27T03:41:49;29.17;;;14.38;;
68140;SDS011;54941;52.220;104.306;2023-05-27T03:44:16;27.83;;;12.85;;
68140;SDS011;54941;52.220;104.306;2023-05-27T03:46:42;31.35;;;13.25;;
68140;SDS011;54941;52.220;104.306;2023-05-27T03:49:08;36.80;;;16.70;;
68140;SDS011;54941;52.220;104.306;2023-05-27T03:51:35;33.60;;;14.15;;
68140;SDS011;54941;52.220;104.306;2023-05-27T03:54:01;31.95;;;14.75;;
68140;SDS011;54941;52.220;104.306;2023-05-27T03:56:27;29.90;;;15.55;;
68140;SDS011;54941;52.220;104.306;2023-05-27T03:58:55;32.97;;;14.82;;
68140;SDS011;54941;52.220;104.306;2023-05-27T04:01:21;36.17;;;16.70;;
68140;SDS011;54941;52.220;104.306;2023-05-27T04:03:48;34.70;;;14.75;;
68140;SDS011;54941;52.220;104.306;2023-05-27T04:06:14;37.15;;;18.10;;
68140;SDS011;54941;52.220;104.306;2023-05-27T04:08:41;34.42;;;15.23;;
68140;SDS011;54941;52.220;104.306;2023-05-27T04:11:09;37.63;;;16.23;;
68140;SDS011;54941;52.220;104.306;2023-05-27T04:13:36;34.17;;;15.95;;
68140;SDS011;54941;52.220;104.306;2023-05-27T04:16:04;28.13;;;13.80;;
68140;SDS011;54941;52.220;104.306;2023-05-27T04:18:30;34.10;;;14.38;;
68140;SDS011;54941;52.220;104.306;2023-05-27T04:20:57;31.17;;;14.18;;
68140;SDS011;54941;52.220;104.306;2023-05-27T04:23:23;28.08;;;12.43;;
68140;SDS011;54941;52.220;104.306;2023-05-27T04:25:50;31.58;;;13.38;;
68140;SDS011;54941;52.220;104.306;2023-05-27T04:28:16;28.98;;;13.50;;
68140;SDS011;54941;52.220;104.306;2023-05-27T04:30:42;31.25;;;14.60;;
68140;SDS011;54941;52.220;104.306;2023-05-27T04:33:10;27.60;;;13.10;;
68140;SDS011;54941;52.220;104.306;2023-05-27T04:35:37;34.30;;;14.80;;
68140;SDS011;54941;52.220;104.306;2023-05-27T04:38:03;28.90;;;12.77;;
68140;SDS011;54941;52.220;104.306;2023-05-27T04:40:29;29.30;;;13.20;;
68140;SDS011;54941;52.220;104.306;2023-05-27T04:42:56;28.80;;;13.02;;
68140;SDS011;54941;52.220;104.306;2023-05-27T04:45:22;26.83;;;13.88;;
68140;SDS011;54941;52.220;104.306;2023-05-27T04:47:48;23.33;;;12.60;;
68140;SDS011;54941;52.220;104.306;2023-05-27T04:50:16;28.88;;;13.73;;
68140;SDS011;54941;52.220;104.306;2023-05-27T04:52:43;29.02;;;11.57;;
68140;SDS011;54941;52.220;104.306;2023-05-27T04:55:09;24.48;;;11.05;;
68140;SDS011;54941;52.220;104.306;2023-05-27T04:57:36;25.90;;;11.95;;
68140;SDS011;54941;52.220;104.306;2023-05-27T05:00:05;29.67;;;11.93;;
68140;SDS011;54941;52.220;104.306;2023-05-27T05:02:34;22.77;;;11.43;;
68140;SDS011;54941;52.220;104.306;2023-05-27T05:05:00;22.38;;;11.18;;
68140;SDS011;54941;52.220;104.306;2023-05-27T05:07:28;30.08;;;11.75;;
68140;SDS011;54941;52.220;104.306;2023-05-27T05:09:55;23.85;;;10.98;;
68140;SDS011;54941;52.220;104.306;2023-05-27T05:12:21;25.08;;;12.02;;
68140;SDS011;54941;52.220;104.306;2023-05-27T05:14:47;24.70;;;10.75;;
68140;SDS011;54941;52.220;104.306;2023-05-27T05:17:14;22.88;;;11.48;;
68140;SDS011;54941;52.220;104.306;2023-05-27T05:19:40;24.33;;;11.35;;
68140;SDS011;54941;52.220;104.306;2023-05-27T05:22:06;24.50;;;10.93;;
68140;SDS011;54941;52.220;104.306;2023-05-27T05:24:34;20.63;;;10.75;;
68140;SDS011;54941;52.220;104.306;2023-05-27T05:27:01;22.55;;;10.75;;
68140;SDS011;54941;52.220;104.306;2023-05-27T05:29:27;21.25;;;8.95;;
68140;SDS011;54941;52.220;104.306;2023-05-27T05:31:53;21.98;;;10.55;;
68140;SDS011;54941;52.220;104.306;2023-05-27T05:34:20;23.60;;;10.48;;
68140;SDS011;54941;52.220;104.306;2023-05-27T05:36:46;18.70;;;9.88;;
68140;SDS011;54941;52.220;104.306;2023-05-27T05:39:12;26.30;;;10.60;;
68140;SDS011;54941;52.220;104.306;2023-05-27T05:41:40;22.75;;;9.70;;
68140;SDS011;54941;52.220;104.306;2023-05-27T05:44:06;26.45;;;10.23;;
68140;SDS011;54941;52.220;104.306;2023-05-27T05:46:33;21.48;;;10.23;;
68140;SDS011;54941;52.220;104.306;2023-05-27T05:48:59;21.02;;;9.73;;
68140;SDS011;54941;52.220;104.306;2023-05-27T05:51:26;17.83;;;8.32;;
68140;SDS011;54941;52.220;104.306;2023-05-27T05:53:52;21.90;;;8.80;;
68140;SDS011;54941;52.220;104.306;2023-05-27T05:56:19;27.02;;;8.82;;
68140;SDS011;54941;52.220;104.306;2023-05-27T05:58:46;23.23;;;8.93;;
68140;SDS011;54941;52.220;104.306;2023-05-27T06:01:13;21.33;;;8.80;;
68140;SDS011;54941;52.220;104.306;2023-05-27T06:03:39;17.85;;;7.47;;
68140;SDS011;54941;52.220;104.306;2023-05-27T06:06:06;16.10;;;8.40;;
68140;SDS011;54941;52.220;104.306;2023-05-27T06:08:32;20.27;;;8.30;;
68140;SDS011;54941;52.220;104.306;2023-05-27T06:10:59;17.50;;;7.57;;
68140;SDS011;54941;52.220;104.306;2023-05-27T06:13:25;19.30;;;8.25;;
68140;SDS011;54941;52.220;104.306;2023-05-27T06:15:53;17.08;;;7.70;;
68140;SDS011;54941;52.220;104.306;2023-05-27T06:18:19;19.70;;;7.90;;
68140;SDS011;54941;52.220;104.306;2023-05-27T06:20:45;18.13;;;8.93;;
68140;SDS011;54941;52.220;104.306;2023-05-27T06:23:12;18.70;;;9.38;;
68140;SDS011;54941;52.220;104.306;2023-05-27T06:25:38;15.68;;;8.23;;
68140;SDS011;54941;52.220;104.306;2023-05-27T06:28:04;15.05;;;8.25;;
68140;SDS011;54941;52.220;104.306;2023-05-27T06:30:31;14.13;;;7.03;;
68140;SDS011;54941;52.220;104.306;2023-05-27T06:32:59;12.90;;;6.47;;
68140;SDS011;54941;52.220;104.306;2023-05-27T06:35:25;16.30;;;8.50;;
68140;SDS011;54941;52.220;104.306;2023-05-27T06:37:52;20.23;;;7.78;;
68140;SDS011;54941;52.220;104.306;2023-05-27T06:40:18;17.17;;;7.90;;
68140;SDS011;54941;52.220;104.306;2023-05-27T06:42:45;18.00;;;7.18;;
68140;SDS011;54941;52.220;104.306;2023-05-27T06:45:12;16.98;;;7.28;;
68140;SDS011;54941;52.220;104.306;2023-05-27T06:47:38;17.75;;;7.00;;
68140;SDS011;54941;52.220;104.306;2023-05-27T06:50:06;15.90;;;7.35;;
68140;SDS011;54941;52.220;104.306;2023-05-27T06:52:33;20.17;;;6.53;;
68140;SDS011;54941;52.220;104.306;2023-05-27T06:55:00;14.48;;;6.95;;
68140;SDS011;54941;52.220;104.306;2023-05-27T06:57:28;17.75;;;6.93;;
68140;SDS011;54941;52.220;104.306;2023-05-27T06:59:54;15.65;;;6.63;;
68140;SDS011;54941;52.220;104.306;2023-05-27T07:02:21;12.27;;;6.47;;
68140;SDS011;54941;52.220;104.306;2023-05-27T07:04:47;16.95;;;6.88;;
68140;SDS011;54941;52.220;104.306;2023-05-27T07:07:20;15.18;;;7.25;;
68140;SDS011;54941;52.220;104.306;2023-05-27T07:09:46;14.43;;;6.93;;
68140;SDS011;54941;52.220;104.306;2023-05-27T07:12:12;17.27;;;6.90;;
68140;SDS011;54941;52.220;104.306;2023-05-27T07:14:38;12.93;;;6.57;;
68140;SDS011;54941;52.220;104.306;2023-05-27T07:17:05;17.13;;;6.35;;
68140;SDS011;54941;52.220;104.306;2023-05-27T07:19:31;17.77;;;5.93;;
68140;SDS011;54941;52.220;104.306;2023-05-27T07:21:57;13.50;;;5.57;;
68140;SDS011;54941;52.220;104.306;2023-05-27T07:24:25;12.98;;;5.30;;
68140;SDS011;54941;52.220;104.306;2023-05-27T07:26:52;14.35;;;6.57;;
68140;SDS011;54941;52.220;104.306;2023-05-27T07:29:18;16.17;;;4.95;;
68140;SDS011;54941;52.220;104.306;2023-05-27T07:31:45;12.75;;;5.85;;
68140;SDS011;54941;52.220;104.306;2023-05-27T07:34:11;14.23;;;5.90;;
68140;SDS011;54941;52.220;104.306;2023-05-27T07:36:38;17.77;;;7.30;;
68140;SDS011;54941;52.220;104.306;2023-05-27T07:39:04;12.00;;;4.82;;
68140;SDS011;54941;52.220;104.306;2023-05-27T07:41:32;13.00;;;5.15;;
68140;SDS011;54941;52.220;104.306;2023-05-27T07:43:58;11.45;;;5.45;;
68140;SDS011;54941;52.220;104.306;2023-05-27T07:46:26;12.93;;;5.82;;
68140;SDS011;54941;52.220;104.306;2023-05-27T07:49:07;12.35;;;6.03;;
68140;SDS011;54941;52.220;104.306;2023-05-27T07:51:34;10.77;;;5.03;;
68140;SDS011;54941;52.220;104.306;2023-05-27T07:54:00;11.60;;;5.30;;
68140;SDS011;54941;52.220;104.306;2023-05-27T07:56:26;14.73;;;5.22;;
68140;SDS011;54941;52.220;104.306;2023-05-27T07:58:54;15.65;;;5.30;;
68140;SDS011;54941;52.220;104.306;2023-05-27T08:01:20;14.60;;;5.55;;
68140;SDS011;54941;52.220;104.306;2023-05-27T08:03:46;16.73;;;6.60;;
68140;SDS011;54941;52.220;104.306;2023-05-27T08:06:13;11.90;;;6.50;;
68140;SDS011;54941;52.220;104.306;2023-05-27T08:08:40;15.43;;;5.65;;
68140;SDS011;54941;52.220;104.306;2023-05-27T08:11:06;15.65;;;5.43;;
68140;SDS011;54941;52.220;104.306;2023-05-27T08:13:32;14.60;;;5.35;;
68140;SDS011;54941;52.220;104.306;2023-05-27T08:16:00;12.15;;;5.60;;
68140;SDS011;54941;52.220;104.306;2023-05-27T08:18:27;14.00;;;5.85;;
68140;SDS011;54941;52.220;104.306;2023-05-27T08:20:53;14.98;;;5.50;;
68140;SDS011;54941;52.220;104.306;2023-05-27T08:23:19;15.75;;;5.47;;
68140;SDS011;54941;52.220;104.306;2023-05-27T08:25:46;14.52;;;5.20;;
68140;SDS011;54941;52.220;104.306;2023-05-27T08:28:13;13.98;;;5.50;;
68140;SDS011;54941;52.220;104.306;2023-05-27T08:30:40;12.73;;;4.90;;
68140;SDS011;54941;52.220;104.306;2023-05-27T08:33:12;10.57;;;4.68;;
68140;SDS011;54941;52.220;104.306;2023-05-27T08:35:41;9.30;;;4.90;;
68140;SDS011;54941;52.220;104.306;2023-05-27T08:38:08;10.50;;;5.60;;
68140;SDS011;54941;52.220;104.306;2023-05-27T08:40:34;13.63;;;4.72;;
68140;SDS011;54941;52.220;104.306;2023-05-27T08:43:04;11.80;;;5.05;;
68140;SDS011;54941;52.220;104.306;2023-05-27T08:48:17;11.05;;;5.10;;
68140;SDS011;54941;52.220;104.306;2023-05-27T08:50:46;12.63;;;5.20;;
68140;SDS011;54941;52.220;104.306;2023-05-27T08:53:17;19.60;;;5.72;;
68140;SDS011;54941;52.220;104.306;2023-05-27T08:55:47;12.52;;;4.97;;
68140;SDS011;54941;52.220;104.306;2023-05-27T08:58:17;14.77;;;5.03;;
68140;SDS011;54941;52.220;104.306;2023-05-27T09:00:44;13.07;;;4.72;;
68140;SDS011;54941;52.220;104.306;2023-05-27T09:03:25;11.75;;;5.18;;
68140;SDS011;54941;52.220;104.306;2023-05-27T09:05:51;11.40;;;5.28;;
68140;SDS011;54941;52.220;104.306;2023-05-27T09:08:17;12.40;;;4.63;;
68140;SDS011;54941;52.220;104.306;2023-05-27T09:10:44;13.65;;;5.22;;
68140;SDS011;54941;52.220;104.306;2023-05-27T09:13:10;11.50;;;5.10;;
68140;SDS011;54941;52.220;104.306;2023-05-27T09:15:37;15.75;;;5.05;;
68140;SDS011;54941;52.220;104.306;2023-05-27T09:18:05;10.82;;;4.93;;
68140;SDS011;54941;52.220;104.306;2023-05-27T09:20:33;17.13;;;5.60;;
68140;SDS011;54941;52.220;104.306;2023-05-27T09:23:00;10.63;;;4.78;;
68140;SDS011;54941;52.220;104.306;2023-05-27T09:25:27;10.70;;;4.60;;
68140;SDS011;54941;52.220;104.306;2023-05-27T09:27:54;9.20;;;4.55;;
68140;SDS011;54941;52.220;104.306;2023-05-27T09:30:21;11.27;;;4.53;;
68140;SDS011;54941;52.220;104.306;2023-05-27T09:32:48;12.45;;;4.68;;
68140;SDS011;54941;52.220;104.306;2023-05-27T09:35:15;9.13;;;5.03;;
68140;SDS011;54941;52.220;104.306;2023-05-27T09:37:44;11.77;;;4.90;;
68140;SDS011;54941;52.220;104.306;2023-05-27T09:40:11;9.90;;;4.57;;
68140;SDS011;54941;52.220;104.306;2023-05-27T09:42:38;9.30;;;4.35;;
68140;SDS011;54941;52.220;104.306;2023-05-27T09:45:06;13.68;;;3.83;;
68140;SDS011;54941;52.220;104.306;2023-05-27T09:47:33;11.52;;;4.35;;
68140;SDS011;54941;52.220;104.306;2023-05-27T09:49:59;10.25;;;4.45;;
68140;SDS011;54941;52.220;104.306;2023-05-27T09:52:29;10.00;;;3.75;;
68140;SDS011;54941;52.220;104.306;2023-05-27T09:54:58;9.90;;;5.10;;
68140;SDS011;54941;52.220;104.306;2023-05-27T09:57:25;9.63;;;4.22;;
68140;SDS011;54941;52.220;104.306;2023-05-27T09:59:55;9.63;;;4.70;;
68140;SDS011;54941;52.220;104.306;2023-05-27T10:02:24;9.10;;;4.32;;
68140;SDS011;54941;52.220;104.306;2023-05-27T10:04:53;9.30;;;3.60;;
68140;SDS011;54941;52.220;104.306;2023-05-27T10:07:21;6.70;;;3.40;;
68140;SDS011;54941;52.220;104.306;2023-05-27T10:09:49;8.50;;;3.25;;
68140;SDS011;54941;52.220;104.306;2023-05-27T10:12:17;9.23;;;4.97;;
68140;SDS011;54941;52.220;104.306;2023-05-27T10:14:43;6.82;;;4.05;;
68140;SDS011;54941;52.220;104.306;2023-05-27T10:17:10;8.13;;;3.58;;
68140;SDS011;54941;52.220;104.306;2023-05-27T10:19:36;6.22;;;3.60;;
68140;SDS011;54941;52.220;104.306;2023-05-27T10:22:09;8.60;;;3.60;;
68140;SDS011;54941;52.220;104.306;2023-05-27T10:24:36;6.50;;;3.53;;
68140;SDS011;54941;52.220;104.306;2023-05-27T10:27:05;8.55;;;4.88;;
68140;SDS011;54941;52.220;104.306;2023-05-27T10:29:36;11.55;;;5.05;;
68140;SDS011;54941;52.220;104.306;2023-05-27T10:32:03;13.10;;;6.80;;
68140;SDS011;54941;52.220;104.306;2023-05-27T10:34:33;15.73;;;5.75;;
68140;SDS011;54941;52.220;104.306;2023-05-27T10:37:00;10.77;;;5.80;;
68140;SDS011;54941;52.220;104.306;2023-05-27T10:39:26;12.57;;;6.82;;
68140;SDS011;54941;52.220;104.306;2023-05-27T10:41:53;11.48;;;5.63;;
68140;SDS011;54941;52.220;104.306;2023-05-27T10:44:27;8.60;;;4.28;;
68140;SDS011;54941;52.220;104.306;2023-05-27T10:47:02;9.65;;;4.00;;
68140;SDS011;54941;52.220;104.306;2023-05-27T10:49:35;9.43;;;4.22;;
68140;SDS011;54941;52.220;104.306;2023-05-27T10:52:05;8.45;;;3.88;;
68140;SDS011;54941;52.220;104.306;2023-05-27T10:54:33;7.05;;;2.70;;
68140;SDS011;54941;52.220;104.306;2023-05-27T10:57:00;6.47;;;2.40;;
68140;SDS011;54941;52.220;104.306;2023-05-27T10:59:30;9.55;;;4.90;;
68140;SDS011;54941;52.220;104.306;2023-05-27T11:02:06;7.13;;;3.15;;
68140;SDS011;54941;52.220;104.306;2023-05-27T11:04:34;9.70;;;2.80;;
68140;SDS011;54941;52.220;104.306;2023-05-27T11:07:00;5.55;;;2.35;;
68140;SDS011;54941;52.220;104.306;2023-05-27T11:09:27;5.60;;;2.65;;
68140;SDS011;54941;52.220;104.306;2023-05-27T11:11:54;5.32;;;2.45;;
68140;SDS011;54941;52.220;104.306;2023-05-27T11:14:21;6.53;;;2.30;;
68140;SDS011;54941;52.220;104.306;2023-05-27T11:16:48;5.90;;;3.10;;
68140;SDS011;54941;52.220;104.306;2023-05-27T11:19:17;6.53;;;3.00;;
68140;SDS011;54941;52.220;104.306;2023-05-27T11:21:46;5.07;;;2.78;;
68140;SDS011;54941;52.220;104.306;2023-05-27T11:24:16;5.78;;;2.53;;
68140;SDS011;54941;52.220;104.306;2023-05-27T11:26:43;5.82;;;3.00;;
68140;SDS011;54941;52.220;104.306;2023-05-27T11:29:10;5.15;;;2.80;;
68140;SDS011;54941;52.220;104.306;2023-05-27T11:31:36;5.40;;;3.00;;
68140;SDS011;54941;52.220;104.306;2023-05-27T11:34:03;5.72;;;3.53;;
68140;SDS011;54941;52.220;104.306;2023-05-27T11:36:31;7.30;;;3.40;;
68140;SDS011;54941;52.220;104.306;2023-05-27T11:38:58;8.00;;;3.70;;
68140;SDS011;54941;52.220;104.306;2023-05-27T11:41:26;10.13;;;3.15;;
68140;SDS011;54941;52.220;104.306;2023-05-27T11:43:54;6.60;;;3.50;;
68140;SDS011;54941;52.220;104.306;2023-05-27T11:46:21;5.22;;;2.90;;
68140;SDS011;54941;52.220;104.306;2023-05-27T11:48:48;6.57;;;3.97;;
68140;SDS011;54941;52.220;104.306;2023-05-27T11:51:15;6.80;;;3.97;;
68140;SDS011;54941;52.220;104.306;2023-05-27T11:53:45;8.27;;;4.82;;
68140;SDS011;54941;52.220;104.306;2023-05-27T11:56:12;8.60;;;5.47;;
68140;SDS011;54941;52.220;104.306;2023-05-27T11:58:41;10.07;;;6.15;;
68140;SDS011;54941;52.220;104.306;2023-05-27T12:01:07;10.10;;;5.97;;
68140;SDS011;54941;52.220;104.306;2023-05-27T12:03:34;9.77;;;5.70;;
68140;SDS011;54941;52.220;104.306;2023-05-27T12:06:00;13.70;;;7.13;;
68140;SDS011;54941;52.220;104.306;2023-05-27T12:08:26;11.63;;;6.30;;
68140;SDS011;54941;52.220;104.306;2023-05-27T12:10:54;12.75;;;6.20;;
68140;SDS011;54941;52.220;104.306;2023-05-27T12:13:21;12.70;;;7.32;;
68140;SDS011;54941;52.220;104.306;2023-05-27T12:15:47;12.52;;;6.22;;
68140;SDS011;54941;52.220;104.306;2023-05-27T12:18:16;15.15;;;7.75;;
68140;SDS011;54941;52.220;104.306;2023-05-27T12:20:43;16.58;;;8.75;;
68140;SDS011;54941;52.220;104.306;2023-05-27T12:23:10;19.48;;;10.40;;
68140;SDS011;54941;52.220;104.306;2023-05-27T12:25:36;20.42;;;10.05;;
68140;SDS011;54941;52.220;104.306;2023-05-27T12:28:05;16.13;;;8.00;;
68140;SDS011;54941;52.220;104.306;2023-05-27T12:30:32;15.15;;;7.15;;
68140;SDS011;54941;52.220;104.306;2023-05-27T12:32:59;12.65;;;5.95;;
68140;SDS011;54941;52.220;104.306;2023-05-27T12:35:25;13.68;;;6.40;;
68140;SDS011;54941;52.220;104.306;2023-05-27T12:37:52;13.40;;;6.82;;
68140;SDS011;54941;52.220;104.306;2023-05-27T12:40:18;13.90;;;6.45;;
68140;SDS011;54941;52.220;104.306;2023-05-27T12:42:46;11.00;;;6.88;;
68140;SDS011;54941;52.220;104.306;2023-05-27T12:45:13;19.85;;;8.05;;
68140;SDS011;54941;52.220;104.306;2023-05-27T12:47:40;13.73;;;6.28;;
68140;SDS011;54941;52.220;104.306;2023-05-27T12:50:07;15.68;;;7.45;;
68140;SDS011;54941;52.220;104.306;2023-05-27T12:52:33;17.00;;;7.78;;
68140;SDS011;54941;52.220;104.306;2023-05-27T12:55:00;18.58;;;7.55;;
68140;SDS011;54941;52.220;104.306;2023-05-27T12:57:26;16.65;;;7.82;;
68140;SDS011;54941;52.220;104.306;2023-05-27T12:59:52;18.58;;;9.93;;
68140;SDS011;54941;52.220;104.306;2023-05-27T13:02:20;14.50;;;7.22;;
68140;SDS011;54941;52.220;104.306;2023-05-27T13:04:47;15.82;;;7.93;;
68140;SDS011;54941;52.220;104.306;2023-05-27T13:07:13;15.60;;;7.60;;
68140;SDS011;54941;52.220;104.306;2023-05-27T13:09:39;13.02;;;6.18;;
68140;SDS011;54941;52.220;104.306;2023-05-27T13:12:06;14.15;;;7.43;;
68140;SDS011;54941;52.220;104.306;2023-05-27T13:14:33;13.27;;;7.80;;
68140;SDS011;54941;52.220;104.306;2023-05-27T13:16:59;13.48;;;8.00;;
68140;SDS011;54941;52.220;104.306;2023-05-27T13:19:27;12.40;;;6.57;;
68140;SDS011;54941;52.220;104.306;2023-05-27T13:21:53;13.85;;;7.13;;
68140;SDS011;54941;52.220;104.306;2023-05-27T13:24:20;17.33;;;8.07;;
68140;SDS011;54941;52.220;104.306;2023-05-27T13:26:46;13.35;;;7.45;;
68140;SDS011;54941;52.220;104.306;2023-05-27T13:29:12;12.90;;;6.78;;
68140;SDS011;54941;52.220;104.306;2023-05-27T13:31:38;15.65;;;7.85;;
68140;SDS011;54941;52.220;104.306;2023-05-27T13:34:05;12.35;;;6.65;;
68140;SDS011;54941;52.220;104.306;2023-05-27T13:36:33;12.73;;;7.47;;
68140;SDS011;54941;52.220;104.306;2023-05-27T13:38:59;13.73;;;6.85;;
68140;SDS011;54941;52.220;104.306;2023-05-27T13:41:25;19.35;;;8.07;;
68140;SDS011;54941;52.220;104.306;2023-05-27T13:43:51;16.40;;;8.20;;
68140;SDS011;54941;52.220;104.306;2023-05-27T13:46:18;18.17;;;9.65;;
68140;SDS011;54941;52.220;104.306;2023-05-27T13:48:44;19.73;;;9.25;;
68140;SDS011;54941;52.220;104.306;2023-05-27T13:51:10;14.63;;;8.05;;
68140;SDS011;54941;52.220;104.306;2023-05-27T13:53:38;15.60;;;9.02;;
68140;SDS011;54941;52.220;104.306;2023-05-27T13:56:09;17.65;;;9.07;;
68140;SDS011;54941;52.220;104.306;2023-05-27T14:01:46;17.48;;;8.95;;
68140;SDS011;54941;52.220;104.306;2023-05-27T14:04:13;17.80;;;7.95;;
68140;SDS011;54941;52.220;104.306;2023-05-27T14:06:39;19.05;;;8.85;;
68140;SDS011;54941;52.220;104.306;2023-05-27T14:09:07;22.05;;;9.80;;
68140;SDS011;54941;52.220;104.306;2023-05-27T14:11:33;25.88;;;10.35;;
68140;SDS011;54941;52.220;104.306;2023-05-27T14:14:01;19.50;;;8.32;;
68140;SDS011;54941;52.220;104.306;2023-05-27T14:18:54;16.20;;;7.68;;